• Join FlightAware (Why Join?)
  • Login
  • US Flag 
04:25AM EDT


 

Airport Tracker/Info


-or-


 

Live Flight TrackerFlight Track Log ✈ SWA2236 ✈ 03-Jul-2013 ✈ KDAL - KABQ

Flight Track Log - Related Links

Times and Time Zones

All times are in EDT time to prevent confusion due to time zone crossing. See the SWA2236 flight status page for this flight to view local times or setup timezone preferences in your user account.

Time Position Orientation Groundspeed Altitude Reporting Facility
EDT Latitude Longitude Course Direction KTS MPH feet Rate Location/Type
07:06AM 32.8190 -96.8250 135° Southeast 177 204 1,700  Level FlightAware
07:07AM 32.8070 -96.8110 136° Southeast 195 224 2,300 2,040 Climbing FlightAware
07:07AM 32.7880 -96.7910 138° Southeast 216 249 3,300 1,860 Climbing FlightAware
07:07AM 32.7780 -96.7840 150° Southeast 231 266 3,500 2,160 Climbing FlightAware
07:08AM 32.7510 -96.8020 209° Southwest 238 274 4,900 2,760 Climbing FlightAware
07:08AM 32.7370 -96.8370 245° Southwest 244 281 6,300 3,180 Climbing FlightAware
07:09AM 32.7250 -96.8660 244° Southwest 253 291 7,700 2,880 Climbing FlightAware
07:09AM 32.7090 -96.9070 245° Southwest 287 330 8,900 2,640 Climbing FlightAware
07:09AM 32.7070 -96.9190 259° West 288 331 9,400 2,280 Climbing FlightAware
07:10AM 32.7230 -96.9950 284° West 336 387 11,000 2,280 Climbing FlightAware
07:10AM 32.7310 -97.0370 283° West 347 399 12,100 3,000 Climbing FlightAware
07:11AM 32.7470 -97.1210 283° West 364 419 14,400 3,180 Climbing FlightAware
07:11AM 32.7540 -97.1600 282° West 364 419 15,500 3,000 Climbing FlightAware
07:12AM 32.7760 -97.2710 283° West 378 435 18,200 2,820 Climbing FlightAware
07:13AM 32.7940 -97.3610 283° West 387 445 20,300 2,820 Climbing FlightAware
07:14AM 32.8110 -97.4480 283° West 392 451 22,200 2,520 Climbing FlightAware
07:14AM 32.8250 -97.5210 283° West 402 463 23,500 2,040 Climbing FlightAware
07:15AM 32.8470 -97.6350 283° West 417 480 25,200 1,920 Climbing FlightAware
07:16AM 32.8630 -97.7250 282° West 425 489 26,500 1,740 Climbing FlightAware
07:17AM 32.8650 -97.8500 271° West 439 505 28,000 1,620 Climbing FlightAware
07:18AM 32.8650 -97.9530 270° West 448 516 29,200 1,560 Climbing FlightAware
07:18AM 32.8640 -98.0310 269° West 454 522 29,900 1,860 Climbing FlightAware
07:19AM 32.8780 -98.1880 276° West 445 512 32,100 1,920 Climbing FlightAware
07:20AM 32.9110 -98.2770 294° West 443 510 33,300 1,620 Climbing FlightAware
07:21AM 32.9480 -98.3750 294° West 443 510 34,400 1,500 Climbing FlightAware
07:21AM 32.9800 -98.4650 293° West 440 506 35,500 1,860 Climbing FlightAware
07:22AM 33.0140 -98.5560 294° West 425 489 37,000 1,740 Climbing FlightAware
07:23AM 33.0460 -98.6430 294° West 420 483 37,900 840 Climbing FlightAware
07:23AM 33.0690 -98.7050 294° West 430 495 38,000 60 Climbing FlightAware
07:24AM 33.1050 -98.8020 294° West 441 507 38,000  Level FlightAware
07:24AM 33.1270 -98.8630 293° West 434 499 38,000  Level FlightAware
07:25AM 33.1480 -98.9210 293° West 429 494 38,000  Level FlightAware
07:25AM 33.1840 -99.0180 294° West 424 488 38,000  Level FlightAware
07:26AM 33.2160 -99.1070 293° West 417 480 38,000  Level FlightAware
07:27AM 33.2340 -99.1560 294° West 413 475 38,000  Level FlightAware
07:28AM 33.2790 -99.2810 293° West 405 466 38,000  Level FlightAware
07:28AM 33.3150 -99.3820 293° West 401 461 38,000  Level FlightAware
07:29AM 33.3560 -99.4950 294° West 394 453 38,000  Level FlightAware
07:30AM 33.3840 -99.5730 293° West 394 453 38,000  Level FlightAware
07:31AM 33.3980 -99.6140 292° West 394 453 38,000  Level FlightAware
07:31AM 33.4290 -99.7020 293° West 394 453 38,000  Level FlightAware
07:32AM 33.4430 -99.7410 293° West 394 453 38,000  Level FlightAware
07:33AM 33.4720 -99.8230 293° West 394 453 38,000  Level FlightAware
07:33AM 33.4940 -99.8840 293° West 394 453 38,000  Level FlightAware
07:34AM 33.5150 -99.9440 293° West 394 453 38,000  Level FlightAware
07:35AM 33.5440 -100.0250 293° West 394 453 38,000  Level FlightAware
07:35AM 33.5670 -100.0910 293° West 394 453 38,000  Level FlightAware
07:36AM 33.5970 -100.1750 293° West 394 453 38,000  Level FlightAware
07:37AM 33.6190 -100.2370 293° West 394 453 38,000  Level FlightAware
07:37AM 33.6480 -100.3190 293° West 394 453 38,000  Level FlightAware
07:38AM 33.6700 -100.3830 292° West 394 453 38,000  Level FlightAware
07:39AM 33.6990 -100.4630 294° West 394 453 38,000  Level FlightAware
07:40AM 33.7975 -100.7483 294° West 406 467 38,000  Level Albuquerque Center
07:41AM 33.8447 -100.8875 292° West 406 467 38,000  Level Albuquerque Center
07:42AM 33.8828 -100.9983 292° West 404 465 38,000  Level Albuquerque Center
07:43AM 33.9353 -101.1489 293° West 405 466 38,000  Level Albuquerque Center
07:44AM 33.9769 -101.2733 292° West 403 464 38,000  Level Albuquerque Center
07:45AM 34.0222 -101.3978 294° West 400 460 38,000  Level Fort Worth Center
07:46AM 34.0561 -101.5097 290° West 403 464 38,000  Level Fort Worth Center
07:47AM 34.1036 -101.6497 292° West 403 464 38,000  Level Fort Worth Center
07:48AM 34.1472 -101.7775 292° West 403 464 38,000  Level Fort Worth Center
07:49AM 34.1886 -101.9050 291° West 403 464 38,000  Level Fort Worth Center
07:50AM 34.2314 -102.0328 292° West 409 471 38,000  Level Albuquerque Center
07:51AM 34.2736 -102.1611 292° West 411 473 38,000  Level Albuquerque Center
07:52AM 34.3164 -102.2897 292° West 411 473 38,000  Level Albuquerque Center
07:53AM 34.3583 -102.4167 292° West 408 470 38,000  Level Albuquerque Center
07:54AM 34.3997 -102.5444 291° West 408 470 38,000  Level Albuquerque Center
07:55AM 34.4411 -102.6731 291° West 408 470 38,000  Level Albuquerque Center
07:56AM 34.4836 -102.8011 292° West 409 471 38,000  Level Albuquerque Center
07:57AM 34.5061 -102.9286 282° West 421 484 38,000  Level Albuquerque Center
07:58AM 34.5239 -103.0728 279° West 427 491 38,000  Level Albuquerque Center
07:59AM 34.5422 -103.2172 279° West 429 494 38,000  Level Albuquerque Center
08:00AM 34.5589 -103.3619 278° West 430 495 38,000  Level Albuquerque Center
08:01AM 34.5753 -103.5067 278° West 428 493 38,000  Level Albuquerque Center
08:02AM 34.5978 -103.6508 281° West 429 494 38,000  Level Albuquerque Center
08:03AM 34.6342 -103.7861 288° West 421 484 38,000  Level Albuquerque Center
08:04AM 34.6678 -103.9242 287° West 421 484 38,000 -360 Level Albuquerque Center
08:05AM 34.7017 -104.0644 286° West 425 489 37,300 -900 Descending Albuquerque Center
08:06AM 34.7367 -104.2083 287° West 435 501 36,300 -660 Descending Albuquerque Center
08:07AM 34.7703 -104.3481 286° West 428 493 36,000 -180 Descending Albuquerque Center
08:08AM 34.8022 -104.4797 286° West 408 470 36,000  Level Albuquerque Center
08:09AM 34.8325 -104.6069 286° West 392 451 36,000  Level Albuquerque Center
08:10AM 34.8458 -104.7372 277° West 385 443 36,000 -960 Level Albuquerque Center
08:11AM 34.8569 -104.8533 277° West 399 459 34,100 -2,040 Descending Albuquerque Center
08:12AM 34.8703 -104.9983 276° West 418 481 31,900 -2,160 Descending Albuquerque Center
08:13AM 34.8833 -105.1378 277° West 415 478 29,800 -2,040 Descending Albuquerque Center
08:14AM 34.8944 -105.2725 276° West 402 463 27,800 -2,040 Descending Albuquerque Center
08:15AM 34.9072 -105.4033 277° West 392 451 25,800 -2,040 Descending Albuquerque Center
08:16AM 34.9189 -105.5306 276° West 380 437 23,800 -1,980 Descending Albuquerque Center
08:17AM 34.9275 -105.6556 275° West 370 426 21,900 -1,800 Descending Albuquerque Center
08:23AM 34.9590 -106.3230 275° West 319 367 12,000 -1,740 Descending FlightAware
08:24AM 34.9580 -106.4410 269° West 310 357 10,300 -1,140 Descending FlightAware
08:25AM 34.9550 -106.5190 267° West 276 318 9,900 -720 Descending FlightAware
08:25AM 34.9460 -106.5620 256° West 263 303 9,400 -1,140 Descending FlightAware
08:25AM 34.9260 -106.5840 222° Southwest 259 298 8,900 -840 Descending FlightAware
08:26AM 34.9030 -106.6140 227° Southwest 244 281 8,700 -360 Descending FlightAware
08:26AM 34.8810 -106.6460 230° Southwest 224 258 8,600 -180 Descending FlightAware
08:27AM 34.8670 -106.6880 248° West 223 257 8,500 -120 Descending FlightAware
08:28AM 34.8580 -106.7150 248° West 223 257 8,500  Level FlightAware
08:28AM 34.8540 -106.7270 248° West 223 257 8,500  Level FlightAware
08:28AM 34.8470 -106.7490 249° West 223 257 8,500  Level FlightAware
08:28AM 34.8420 -106.7620 245° Southwest 223 257 8,500 -1,620 Level FlightAware
08:29AM 34.9633 -106.7022 245° Southwest 199 229 7,000 -1,500 Descending Albuquerque Center
08:30AM 34.9981 -106.6586 46° Northeast 188 216 6,000 -900 Descending Albuquerque Center
08:31AM 35.0331 -106.6156 45° Northeast 177 204 5,300 -720 Descending Albuquerque Center